Airfield :
LOGIN :

Register | Disclaimer

   EN    FR    IT 

 










Legend :    VFR   Marginal VFR   IFR   Intensive IFR   Very Intensive IFR
Visi :
Ceiling :
>= 8 km
>= 3000ft
5 to 8 km
1000 to 3000 ft
1500m to 5 km
500 to 1000 ft
800 to 1500m
200 to 500 ft
< 800m
< 200 ft
Symbols :   Thunderstorms  Fog  Heavy snow  Heavy precipitations  Wind > 20 kt
SIGMETs :     Misc.  Thunderstorms  Icing  Turbulence  Mountain Waves  Volcanic Ashes






- Airport Elevation : 29 ft


LIRM - Grazzanise Caserta

CURRENT METAR :
  • 142055Z 04003KT CAVOK 11/10 Q1009 RMK SKC VIS MIN 9999 WIND THR06 03004KT BLU

EXPIRED METARs :
  • 141955Z 07003KT CAVOK 11/10 Q1009
  • 141855Z 07006KT 9999 FEW080 12/11 Q1009
  • 141755Z 08003KT 9999 FEW025 SCT080 14/12 Q1009 RMK SCT VIS MIN 9999 WIND THR06 05004KT BLU

TAF TAF LIRM
Valid from the 14 at 21:00 until the 15 at 06:00 UTC


142000Z 1421/1506 07007KT 9999 FEW020 SCT070



MET'MAP, your aeronautical weather chart ! - Copyright ORBIFLY December 2007 - Disclaimer

ORBIFLY MET'MAP TEAM :

Programming & Development : Alexandra Zaïnal
Concept & Development : Baudouin d'Aumeries
Co-Development & Prog : Marc-Olivier Méhu
Technical & hardware support : Manuel Goepfert

Contact : metmap@orbifly.com




SOURCES & CREDITS :

   NOAA